KHBG/HBG METAR and TAF weather

Enter ICAO airport designator
Station Type Date Time Source
KHBG METAR 2019/07/17 17:53 UTC NOAA

KHBG 171753Z AUTO VRB04KT 10SM CLR 32/22 A3014 RMK AO2 SLP204 60000 T03220222 10322 20239 58004


Station Type Date Time Source
KHBG Decoded METAR 2019/07/17 17:53 UTC NOAA

HATTIESBURG CHAIN MUNICIPAL, MS, United States (KHBG) 31-16N 89-15W 44M
Jul 17, 2019 - 01:53 PM EDT / 2019.07.17 1753 UTC
Wind: Variable at 5 MPH (4 KT):0
Visibility: 10 mile(s):0
Sky conditions: clear
Temperature: 90.0 F (32.2 C)
Heat index: 97.0 F (36.1 C):1
Dew Point: 72.0 F (22.2 C)
Relative Humidity: 55%
Pressure (altimeter): 30.14 in. Hg (1020 hPa)
Pressure tendency: 0.01 inches (0.4 hPa) lower than three hours ago
ob: KHBG 171753Z AUTO VRB04KT 10SM CLR 32/22 A3014 RMK AO2 SLP204 60000 T03220222 10322 20239 58004
cycle: 18

Station Type Date Time Source
KHBG TAF 2019/07/17 18:22 UTC NOAA

TAF KHBG 171720Z 1718/1818 27005KT P6SM FEW035
FM172300 23005KT P6SM SKC

Example: see airport list